sensor_id;sensor_type;location;lat;lon;timestamp;P1;durP1;ratioP1;P2;durP2;ratioP2
22480;SDS011;11407;56.964;-2.212;2023-05-07T00:00:51;17.17;;;6.47;;
22480;SDS011;11407;56.964;-2.212;2023-05-07T00:03:16;14.50;;;5.70;;
22480;SDS011;11407;56.964;-2.212;2023-05-07T00:05:41;18.70;;;6.23;;
22480;SDS011;11407;56.964;-2.212;2023-05-07T00:08:07;16.50;;;6.27;;
22480;SDS011;11407;56.964;-2.212;2023-05-07T00:10:32;15.83;;;6.30;;
22480;SDS011;11407;56.964;-2.212;2023-05-07T00:12:57;13.17;;;6.20;;
22480;SDS011;11407;56.964;-2.212;2023-05-07T00:15:23;25.37;;;6.87;;
22480;SDS011;11407;56.964;-2.212;2023-05-07T00:17:48;15.03;;;6.03;;
22480;SDS011;11407;56.964;-2.212;2023-05-07T00:20:13;13.00;;;6.10;;
22480;SDS011;11407;56.964;-2.212;2023-05-07T00:22:38;15.43;;;6.67;;
22480;SDS011;11407;56.964;-2.212;2023-05-07T00:25:04;23.03;;;8.67;;
22480;SDS011;11407;56.964;-2.212;2023-05-07T00:27:30;29.00;;;9.30;;
22480;SDS011;11407;56.964;-2.212;2023-05-07T00:29:55;35.20;;;9.73;;
22480;SDS011;11407;56.964;-2.212;2023-05-07T00:32:20;25.90;;;8.43;;
22480;SDS011;11407;56.964;-2.212;2023-05-07T00:34:46;24.30;;;8.00;;
22480;SDS011;11407;56.964;-2.212;2023-05-07T00:37:11;17.80;;;6.63;;
22480;SDS011;11407;56.964;-2.212;2023-05-07T00:39:37;26.47;;;8.77;;
22480;SDS011;11407;56.964;-2.212;2023-05-07T00:42:02;19.60;;;6.73;;
22480;SDS011;11407;56.964;-2.212;2023-05-07T00:44:28;25.00;;;9.00;;
22480;SDS011;11407;56.964;-2.212;2023-05-07T00:46:53;31.87;;;9.07;;
22480;SDS011;11407;56.964;-2.212;2023-05-07T00:49:19;26.53;;;8.77;;
22480;SDS011;11407;56.964;-2.212;2023-05-07T00:51:45;24.07;;;7.00;;
22480;SDS011;11407;56.964;-2.212;2023-05-07T00:54:10;17.50;;;6.00;;
22480;SDS011;11407;56.964;-2.212;2023-05-07T00:56:36;13.00;;;5.23;;
22480;SDS011;11407;56.964;-2.212;2023-05-07T00:59:01;12.03;;;5.13;;
22480;SDS011;11407;56.964;-2.212;2023-05-07T01:01:26;9.83;;;4.60;;
22480;SDS011;11407;56.964;-2.212;2023-05-07T01:03:52;10.70;;;5.00;;
22480;SDS011;11407;56.964;-2.212;2023-05-07T01:06:17;8.43;;;4.50;;
22480;SDS011;11407;56.964;-2.212;2023-05-07T01:08:43;12.23;;;4.60;;
22480;SDS011;11407;56.964;-2.212;2023-05-07T01:11:08;10.27;;;4.33;;
22480;SDS011;11407;56.964;-2.212;2023-05-07T01:13:35;17.73;;;5.60;;
22480;SDS011;11407;56.964;-2.212;2023-05-07T01:16:01;19.03;;;6.90;;
22480;SDS011;11407;56.964;-2.212;2023-05-07T01:18:26;32.80;;;9.00;;
22480;SDS011;11407;56.964;-2.212;2023-05-07T01:20:52;27.67;;;8.73;;
22480;SDS011;11407;56.964;-2.212;2023-05-07T01:23:17;22.43;;;8.50;;
22480;SDS011;11407;56.964;-2.212;2023-05-07T01:25:43;27.20;;;8.50;;
22480;SDS011;11407;56.964;-2.212;2023-05-07T01:28:08;24.33;;;8.20;;
22480;SDS011;11407;56.964;-2.212;2023-05-07T01:30:33;21.87;;;7.13;;
22480;SDS011;11407;56.964;-2.212;2023-05-07T01:33:01;19.97;;;6.77;;
22480;SDS011;11407;56.964;-2.212;2023-05-07T01:35:29;17.93;;;5.90;;
22480;SDS011;11407;56.964;-2.212;2023-05-07T01:37:55;25.47;;;7.63;;
22480;SDS011;11407;56.964;-2.212;2023-05-07T01:40:21;22.27;;;8.37;;
22480;SDS011;11407;56.964;-2.212;2023-05-07T01:42:46;21.07;;;6.90;;
22480;SDS011;11407;56.964;-2.212;2023-05-07T01:45:13;16.43;;;7.07;;
22480;SDS011;11407;56.964;-2.212;2023-05-07T01:47:38;19.67;;;6.57;;
22480;SDS011;11407;56.964;-2.212;2023-05-07T01:50:07;18.43;;;6.60;;
22480;SDS011;11407;56.964;-2.212;2023-05-07T01:52:33;14.73;;;6.50;;
22480;SDS011;11407;56.964;-2.212;2023-05-07T01:54:58;13.00;;;5.53;;
22480;SDS011;11407;56.964;-2.212;2023-05-07T01:57:23;12.73;;;5.53;;
22480;SDS011;11407;56.964;-2.212;2023-05-07T01:59:49;9.00;;;4.50;;
22480;SDS011;11407;56.964;-2.212;2023-05-07T02:02:14;17.47;;;6.10;;
22480;SDS011;11407;56.964;-2.212;2023-05-07T02:04:39;14.80;;;5.33;;
22480;SDS011;11407;56.964;-2.212;2023-05-07T02:07:04;9.40;;;4.57;;
22480;SDS011;11407;56.964;-2.212;2023-05-07T02:09:30;9.60;;;4.40;;
22480;SDS011;11407;56.964;-2.212;2023-05-07T02:11:55;12.63;;;5.33;;
22480;SDS011;11407;56.964;-2.212;2023-05-07T02:14:20;13.73;;;5.73;;
22480;SDS011;11407;56.964;-2.212;2023-05-07T02:16:46;15.50;;;5.63;;
22480;SDS011;11407;56.964;-2.212;2023-05-07T02:19:11;17.80;;;6.33;;
22480;SDS011;11407;56.964;-2.212;2023-05-07T02:21:36;17.33;;;6.53;;
22480;SDS011;11407;56.964;-2.212;2023-05-07T02:24:01;19.07;;;6.17;;
22480;SDS011;11407;56.964;-2.212;2023-05-07T02:26:27;21.93;;;6.43;;
22480;SDS011;11407;56.964;-2.212;2023-05-07T02:28:52;17.30;;;5.87;;
22480;SDS011;11407;56.964;-2.212;2023-05-07T02:31:18;12.07;;;5.27;;
22480;SDS011;11407;56.964;-2.212;2023-05-07T02:33:44;14.57;;;5.43;;
22480;SDS011;11407;56.964;-2.212;2023-05-07T02:36:10;20.07;;;6.83;;
22480;SDS011;11407;56.964;-2.212;2023-05-07T02:38:36;22.20;;;7.67;;
22480;SDS011;11407;56.964;-2.212;2023-05-07T02:41:01;31.93;;;8.83;;
22480;SDS011;11407;56.964;-2.212;2023-05-07T02:43:27;26.43;;;7.93;;
22480;SDS011;11407;56.964;-2.212;2023-05-07T02:48:26;16.43;;;6.43;;
22480;SDS011;11407;56.964;-2.212;2023-05-07T02:50:52;27.00;;;7.43;;
22480;SDS011;11407;56.964;-2.212;2023-05-07T02:53:17;30.27;;;8.07;;
22480;SDS011;11407;56.964;-2.212;2023-05-07T02:55:42;18.53;;;6.40;;
22480;SDS011;11407;56.964;-2.212;2023-05-07T02:58:07;26.60;;;7.17;;
22480;SDS011;11407;56.964;-2.212;2023-05-07T03:00:32;36.00;;;8.67;;
22480;SDS011;11407;56.964;-2.212;2023-05-07T03:02:58;23.57;;;8.10;;
22480;SDS011;11407;56.964;-2.212;2023-05-07T03:05:23;22.97;;;7.57;;
22480;SDS011;11407;56.964;-2.212;2023-05-07T03:07:48;16.50;;;5.90;;
22480;SDS011;11407;56.964;-2.212;2023-05-07T03:10:13;18.23;;;5.90;;
22480;SDS011;11407;56.964;-2.212;2023-05-07T03:12:39;24.73;;;6.80;;
22480;SDS011;11407;56.964;-2.212;2023-05-07T03:15:04;27.03;;;7.77;;
22480;SDS011;11407;56.964;-2.212;2023-05-07T03:17:30;24.47;;;7.77;;
22480;SDS011;11407;56.964;-2.212;2023-05-07T03:19:55;28.83;;;8.93;;
22480;SDS011;11407;56.964;-2.212;2023-05-07T03:22:20;33.73;;;9.00;;
22480;SDS011;11407;56.964;-2.212;2023-05-07T03:24:45;34.53;;;9.37;;
22480;SDS011;11407;56.964;-2.212;2023-05-07T03:27:11;26.80;;;8.10;;
22480;SDS011;11407;56.964;-2.212;2023-05-07T03:29:36;27.80;;;8.50;;
22480;SDS011;11407;56.964;-2.212;2023-05-07T03:32:01;26.97;;;8.37;;
22480;SDS011;11407;56.964;-2.212;2023-05-07T03:34:26;36.17;;;9.10;;
22480;SDS011;11407;56.964;-2.212;2023-05-07T03:36:52;35.97;;;10.57;;
22480;SDS011;11407;56.964;-2.212;2023-05-07T03:39:17;36.73;;;10.77;;
22480;SDS011;11407;56.964;-2.212;2023-05-07T03:41:42;29.73;;;9.60;;
22480;SDS011;11407;56.964;-2.212;2023-05-07T03:44:07;33.23;;;8.77;;
22480;SDS011;11407;56.964;-2.212;2023-05-07T03:46:33;29.53;;;8.57;;
22480;SDS011;11407;56.964;-2.212;2023-05-07T03:48:58;32.07;;;8.97;;
22480;SDS011;11407;56.964;-2.212;2023-05-07T03:51:24;27.60;;;8.73;;
22480;SDS011;11407;56.964;-2.212;2023-05-07T03:53:50;27.93;;;9.67;;
22480;SDS011;11407;56.964;-2.212;2023-05-07T03:56:17;35.33;;;10.03;;
22480;SDS011;11407;56.964;-2.212;2023-05-07T03:58:43;24.90;;;8.20;;
22480;SDS011;11407;56.964;-2.212;2023-05-07T04:01:08;24.37;;;9.00;;
22480;SDS011;11407;56.964;-2.212;2023-05-07T04:03:33;33.63;;;10.33;;
22480;SDS011;11407;56.964;-2.212;2023-05-07T04:05:58;26.13;;;9.90;;
22480;SDS011;11407;56.964;-2.212;2023-05-07T04:08:24;18.73;;;7.60;;
22480;SDS011;11407;56.964;-2.212;2023-05-07T04:10:54;16.47;;;6.27;;
22480;SDS011;11407;56.964;-2.212;2023-05-07T04:13:19;19.80;;;6.83;;
22480;SDS011;11407;56.964;-2.212;2023-05-07T04:15:44;19.07;;;6.63;;
22480;SDS011;11407;56.964;-2.212;2023-05-07T04:18:11;21.37;;;6.43;;
22480;SDS011;11407;56.964;-2.212;2023-05-07T04:20:36;17.93;;;5.83;;
22480;SDS011;11407;56.964;-2.212;2023-05-07T04:23:01;31.17;;;9.00;;
22480;SDS011;11407;56.964;-2.212;2023-05-07T04:25:27;46.00;;;10.23;;
22480;SDS011;11407;56.964;-2.212;2023-05-07T04:27:52;22.00;;;8.53;;
22480;SDS011;11407;56.964;-2.212;2023-05-07T04:30:17;32.37;;;9.33;;
22480;SDS011;11407;56.964;-2.212;2023-05-07T04:32:43;26.17;;;8.20;;
22480;SDS011;11407;56.964;-2.212;2023-05-07T04:35:09;32.77;;;9.83;;
22480;SDS011;11407;56.964;-2.212;2023-05-07T04:37:34;36.27;;;9.87;;
22480;SDS011;11407;56.964;-2.212;2023-05-07T04:40:00;40.40;;;10.83;;
22480;SDS011;11407;56.964;-2.212;2023-05-07T04:42:25;38.00;;;11.07;;
22480;SDS011;11407;56.964;-2.212;2023-05-07T04:44:52;43.13;;;11.37;;
22480;SDS011;11407;56.964;-2.212;2023-05-07T04:47:17;39.07;;;10.13;;
22480;SDS011;11407;56.964;-2.212;2023-05-07T04:49:42;38.57;;;11.67;;
22480;SDS011;11407;56.964;-2.212;2023-05-07T04:52:08;34.97;;;10.80;;
22480;SDS011;11407;56.964;-2.212;2023-05-07T04:54:33;48.50;;;12.10;;
22480;SDS011;11407;56.964;-2.212;2023-05-07T04:56:58;36.67;;;10.50;;
22480;SDS011;11407;56.964;-2.212;2023-05-07T04:59:23;44.80;;;12.80;;
22480;SDS011;11407;56.964;-2.212;2023-05-07T05:01:49;39.77;;;10.30;;
22480;SDS011;11407;56.964;-2.212;2023-05-07T05:04:14;33.33;;;9.57;;
22480;SDS011;11407;56.964;-2.212;2023-05-07T05:06:39;27.87;;;9.07;;
22480;SDS011;11407;56.964;-2.212;2023-05-07T05:09:04;30.47;;;9.03;;
22480;SDS011;11407;56.964;-2.212;2023-05-07T05:11:30;34.40;;;10.27;;
22480;SDS011;11407;56.964;-2.212;2023-05-07T05:13:55;42.93;;;12.20;;
22480;SDS011;11407;56.964;-2.212;2023-05-07T05:16:21;36.17;;;10.63;;
22480;SDS011;11407;56.964;-2.212;2023-05-07T05:18:46;34.93;;;10.83;;
22480;SDS011;11407;56.964;-2.212;2023-05-07T05:21:11;36.40;;;11.43;;
22480;SDS011;11407;56.964;-2.212;2023-05-07T05:23:36;44.30;;;11.57;;
22480;SDS011;11407;56.964;-2.212;2023-05-07T05:26:02;44.93;;;11.67;;
22480;SDS011;11407;56.964;-2.212;2023-05-07T05:28:27;46.13;;;13.37;;
22480;SDS011;11407;56.964;-2.212;2023-05-07T05:30:53;45.87;;;13.67;;
22480;SDS011;11407;56.964;-2.212;2023-05-07T05:33:18;53.33;;;13.93;;
22480;SDS011;11407;56.964;-2.212;2023-05-07T05:35:43;62.97;;;15.10;;
22480;SDS011;11407;56.964;-2.212;2023-05-07T05:38:08;44.70;;;12.23;;
22480;SDS011;11407;56.964;-2.212;2023-05-07T05:40:34;34.30;;;9.67;;
22480;SDS011;11407;56.964;-2.212;2023-05-07T05:42:59;31.63;;;9.70;;
22480;SDS011;11407;56.964;-2.212;2023-05-07T05:45:25;30.07;;;9.33;;
22480;SDS011;11407;56.964;-2.212;2023-05-07T05:47:50;29.57;;;8.67;;
22480;SDS011;11407;56.964;-2.212;2023-05-07T05:50:15;33.57;;;9.50;;
22480;SDS011;11407;56.964;-2.212;2023-05-07T05:52:40;26.50;;;8.70;;
22480;SDS011;11407;56.964;-2.212;2023-05-07T05:55:07;35.10;;;9.73;;
22480;SDS011;11407;56.964;-2.212;2023-05-07T05:57:32;41.60;;;11.17;;
22480;SDS011;11407;56.964;-2.212;2023-05-07T05:59:57;30.70;;;8.73;;
22480;SDS011;11407;56.964;-2.212;2023-05-07T06:02:23;33.87;;;9.57;;
22480;SDS011;11407;56.964;-2.212;2023-05-07T06:04:48;37.47;;;10.60;;
22480;SDS011;11407;56.964;-2.212;2023-05-07T06:07:13;29.57;;;9.80;;
22480;SDS011;11407;56.964;-2.212;2023-05-07T06:09:38;30.13;;;10.53;;
22480;SDS011;11407;56.964;-2.212;2023-05-07T06:12:04;30.07;;;8.70;;
22480;SDS011;11407;56.964;-2.212;2023-05-07T06:14:29;31.87;;;9.27;;
22480;SDS011;11407;56.964;-2.212;2023-05-07T06:16:55;27.63;;;7.90;;
22480;SDS011;11407;56.964;-2.212;2023-05-07T06:19:20;23.97;;;7.73;;
22480;SDS011;11407;56.964;-2.212;2023-05-07T06:21:48;27.40;;;8.40;;
22480;SDS011;11407;56.964;-2.212;2023-05-07T06:24:14;31.23;;;9.70;;
22480;SDS011;11407;56.964;-2.212;2023-05-07T06:26:39;42.03;;;11.97;;
22480;SDS011;11407;56.964;-2.212;2023-05-07T06:29:04;42.43;;;10.50;;
22480;SDS011;11407;56.964;-2.212;2023-05-07T06:31:30;42.90;;;11.10;;
22480;SDS011;11407;56.964;-2.212;2023-05-07T06:33:59;31.43;;;10.37;;
22480;SDS011;11407;56.964;-2.212;2023-05-07T06:36:24;38.17;;;10.50;;
22480;SDS011;11407;56.964;-2.212;2023-05-07T06:38:49;30.50;;;9.17;;
22480;SDS011;11407;56.964;-2.212;2023-05-07T06:41:15;45.10;;;11.77;;
22480;SDS011;11407;56.964;-2.212;2023-05-07T06:43:40;36.10;;;11.00;;
22480;SDS011;11407;56.964;-2.212;2023-05-07T06:46:05;35.10;;;9.87;;
22480;SDS011;11407;56.964;-2.212;2023-05-07T06:48:30;30.67;;;8.60;;
22480;SDS011;11407;56.964;-2.212;2023-05-07T06:50:56;37.90;;;9.83;;
22480;SDS011;11407;56.964;-2.212;2023-05-07T06:53:22;38.00;;;10.90;;
22480;SDS011;11407;56.964;-2.212;2023-05-07T06:55:48;36.37;;;11.83;;
22480;SDS011;11407;56.964;-2.212;2023-05-07T06:58:13;36.47;;;10.80;;
22480;SDS011;11407;56.964;-2.212;2023-05-07T07:00:38;38.70;;;11.00;;
22480;SDS011;11407;56.964;-2.212;2023-05-07T07:03:04;32.80;;;9.93;;
22480;SDS011;11407;56.964;-2.212;2023-05-07T07:05:30;28.83;;;8.70;;
22480;SDS011;11407;56.964;-2.212;2023-05-07T07:07:56;26.53;;;8.00;;
22480;SDS011;11407;56.964;-2.212;2023-05-07T07:10:21;23.03;;;8.20;;
22480;SDS011;11407;56.964;-2.212;2023-05-07T07:12:47;30.67;;;9.93;;
22480;SDS011;11407;56.964;-2.212;2023-05-07T07:15:13;39.77;;;10.70;;
22480;SDS011;11407;56.964;-2.212;2023-05-07T07:17:38;34.27;;;10.67;;
22480;SDS011;11407;56.964;-2.212;2023-05-07T07:20:04;35.17;;;10.90;;
22480;SDS011;11407;56.964;-2.212;2023-05-07T07:22:29;31.90;;;9.30;;
22480;SDS011;11407;56.964;-2.212;2023-05-07T07:24:54;27.60;;;9.30;;
22480;SDS011;11407;56.964;-2.212;2023-05-07T07:27:20;29.00;;;9.23;;
22480;SDS011;11407;56.964;-2.212;2023-05-07T07:29:45;28.70;;;9.60;;
22480;SDS011;11407;56.964;-2.212;2023-05-07T07:32:10;26.50;;;9.83;;
22480;SDS011;11407;56.964;-2.212;2023-05-07T07:34:35;36.30;;;11.27;;
22480;SDS011;11407;56.964;-2.212;2023-05-07T07:37:01;36.73;;;9.87;;
22480;SDS011;11407;56.964;-2.212;2023-05-07T07:39:30;47.03;;;10.70;;
22480;SDS011;11407;56.964;-2.212;2023-05-07T07:41:55;45.47;;;12.83;;
22480;SDS011;11407;56.964;-2.212;2023-05-07T07:44:21;35.77;;;11.13;;
22480;SDS011;11407;56.964;-2.212;2023-05-07T07:46:46;26.90;;;9.13;;
22480;SDS011;11407;56.964;-2.212;2023-05-07T07:49:11;29.40;;;8.97;;
22480;SDS011;11407;56.964;-2.212;2023-05-07T07:51:36;24.27;;;7.43;;
22480;SDS011;11407;56.964;-2.212;2023-05-07T07:54:02;27.57;;;8.00;;
22480;SDS011;11407;56.964;-2.212;2023-05-07T07:56:27;32.77;;;9.33;;
22480;SDS011;11407;56.964;-2.212;2023-05-07T07:58:53;37.10;;;10.13;;
22480;SDS011;11407;56.964;-2.212;2023-05-07T08:01:18;36.13;;;9.27;;
22480;SDS011;11407;56.964;-2.212;2023-05-07T08:03:43;25.77;;;8.13;;
22480;SDS011;11407;56.964;-2.212;2023-05-07T08:06:08;20.87;;;7.37;;
22480;SDS011;11407;56.964;-2.212;2023-05-07T08:08:34;22.60;;;8.30;;
22480;SDS011;11407;56.964;-2.212;2023-05-07T08:10:59;19.00;;;7.93;;
22480;SDS011;11407;56.964;-2.212;2023-05-07T08:13:24;22.77;;;7.87;;
22480;SDS011;11407;56.964;-2.212;2023-05-07T08:15:50;21.73;;;8.73;;
22480;SDS011;11407;56.964;-2.212;2023-05-07T08:18:15;20.10;;;8.20;;
22480;SDS011;11407;56.964;-2.212;2023-05-07T08:20:40;24.43;;;8.27;;
22480;SDS011;11407;56.964;-2.212;2023-05-07T08:23:06;25.93;;;9.40;;
22480;SDS011;11407;56.964;-2.212;2023-05-07T08:25:35;24.47;;;8.77;;
22480;SDS011;11407;56.964;-2.212;2023-05-07T08:28:00;28.10;;;8.47;;
22480;SDS011;11407;56.964;-2.212;2023-05-07T08:30:25;31.87;;;9.50;;
22480;SDS011;11407;56.964;-2.212;2023-05-07T08:32:51;23.60;;;8.33;;
22480;SDS011;11407;56.964;-2.212;2023-05-07T08:35:16;27.03;;;8.90;;
22480;SDS011;11407;56.964;-2.212;2023-05-07T08:37:41;25.47;;;7.70;;
22480;SDS011;11407;56.964;-2.212;2023-05-07T08:40:07;26.60;;;8.63;;
22480;SDS011;11407;56.964;-2.212;2023-05-07T08:42:33;26.40;;;8.37;;
22480;SDS011;11407;56.964;-2.212;2023-05-07T08:45:00;28.07;;;9.07;;
22480;SDS011;11407;56.964;-2.212;2023-05-07T08:47:29;26.10;;;8.80;;
22480;SDS011;11407;56.964;-2.212;2023-05-07T08:49:54;25.40;;;8.87;;
22480;SDS011;11407;56.964;-2.212;2023-05-07T08:52:20;24.33;;;8.77;;
22480;SDS011;11407;56.964;-2.212;2023-05-07T08:54:45;27.63;;;9.07;;
22480;SDS011;11407;56.964;-2.212;2023-05-07T08:57:11;30.07;;;9.17;;
22480;SDS011;11407;56.964;-2.212;2023-05-07T08:59:36;30.23;;;8.97;;
22480;SDS011;11407;56.964;-2.212;2023-05-07T09:02:01;34.60;;;9.53;;
22480;SDS011;11407;56.964;-2.212;2023-05-07T09:04:27;31.43;;;9.40;;
22480;SDS011;11407;56.964;-2.212;2023-05-07T09:06:52;28.17;;;9.37;;
22480;SDS011;11407;56.964;-2.212;2023-05-07T09:09:17;30.90;;;9.17;;
22480;SDS011;11407;56.964;-2.212;2023-05-07T09:11:43;36.17;;;9.90;;
22480;SDS011;11407;56.964;-2.212;2023-05-07T09:14:09;35.17;;;10.07;;
22480;SDS011;11407;56.964;-2.212;2023-05-07T09:16:34;30.13;;;9.63;;
22480;SDS011;11407;56.964;-2.212;2023-05-07T09:18:59;27.20;;;9.13;;
22480;SDS011;11407;56.964;-2.212;2023-05-07T09:21:26;38.23;;;9.87;;
22480;SDS011;11407;56.964;-2.212;2023-05-07T09:23:52;29.00;;;9.20;;
22480;SDS011;11407;56.964;-2.212;2023-05-07T09:26:18;41.23;;;9.93;;
22480;SDS011;11407;56.964;-2.212;2023-05-07T09:28:43;28.83;;;9.50;;
22480;SDS011;11407;56.964;-2.212;2023-05-07T09:31:09;28.83;;;9.20;;
22480;SDS011;11407;56.964;-2.212;2023-05-07T09:33:34;34.30;;;9.43;;
22480;SDS011;11407;56.964;-2.212;2023-05-07T09:36:05;31.33;;;9.60;;
22480;SDS011;11407;56.964;-2.212;2023-05-07T09:38:32;29.93;;;10.67;;
22480;SDS011;11407;56.964;-2.212;2023-05-07T09:41:01;30.37;;;9.67;;
22480;SDS011;11407;56.964;-2.212;2023-05-07T09:43:26;35.23;;;10.30;;
22480;SDS011;11407;56.964;-2.212;2023-05-07T09:45:56;29.37;;;9.60;;
22480;SDS011;11407;56.964;-2.212;2023-05-07T09:48:22;30.10;;;9.57;;
22480;SDS011;11407;56.964;-2.212;2023-05-07T09:50:51;35.57;;;10.57;;
22480;SDS011;11407;56.964;-2.212;2023-05-07T09:53:21;26.43;;;8.87;;
22480;SDS011;11407;56.964;-2.212;2023-05-07T09:55:47;25.33;;;8.23;;
22480;SDS011;11407;56.964;-2.212;2023-05-07T09:58:13;19.30;;;8.30;;
22480;SDS011;11407;56.964;-2.212;2023-05-07T10:00:39;19.23;;;7.00;;
22480;SDS011;11407;56.964;-2.212;2023-05-07T10:03:06;15.73;;;6.57;;
22480;SDS011;11407;56.964;-2.212;2023-05-07T10:05:32;13.80;;;5.57;;
22480;SDS011;11407;56.964;-2.212;2023-05-07T10:07:57;14.97;;;6.80;;
22480;SDS011;11407;56.964;-2.212;2023-05-07T10:10:23;11.70;;;5.83;;
22480;SDS011;11407;56.964;-2.212;2023-05-07T10:12:49;13.30;;;6.20;;
22480;SDS011;11407;56.964;-2.212;2023-05-07T10:15:15;16.13;;;5.13;;
22480;SDS011;11407;56.964;-2.212;2023-05-07T10:17:41;11.90;;;5.27;;
22480;SDS011;11407;56.964;-2.212;2023-05-07T10:20:07;10.87;;;5.50;;
22480;SDS011;11407;56.964;-2.212;2023-05-07T10:22:37;14.30;;;5.70;;
22480;SDS011;11407;56.964;-2.212;2023-05-07T10:25:03;14.03;;;6.13;;
22480;SDS011;11407;56.964;-2.212;2023-05-07T10:27:31;15.10;;;6.57;;
22480;SDS011;11407;56.964;-2.212;2023-05-07T10:32:42;14.17;;;6.97;;
22480;SDS011;11407;56.964;-2.212;2023-05-07T10:35:16;12.97;;;7.00;;
22480;SDS011;11407;56.964;-2.212;2023-05-07T10:37:42;19.47;;;10.63;;
22480;SDS011;11407;56.964;-2.212;2023-05-07T10:40:09;16.83;;;8.77;;
22480;SDS011;11407;56.964;-2.212;2023-05-07T10:42:34;19.83;;;9.50;;
22480;SDS011;11407;56.964;-2.212;2023-05-07T10:45:11;15.10;;;7.80;;
22480;SDS011;11407;56.964;-2.212;2023-05-07T10:47:37;15.33;;;9.00;;
22480;SDS011;11407;56.964;-2.212;2023-05-07T10:50:22;15.93;;;9.10;;
22480;SDS011;11407;56.964;-2.212;2023-05-07T10:53:05;13.80;;;8.00;;
22480;SDS011;11407;56.964;-2.212;2023-05-07T10:55:32;19.87;;;9.30;;
22480;SDS011;11407;56.964;-2.212;2023-05-07T10:58:02;16.83;;;9.00;;
22480;SDS011;11407;56.964;-2.212;2023-05-07T11:00:43;16.87;;;7.93;;
22480;SDS011;11407;56.964;-2.212;2023-05-07T11:03:08;12.73;;;8.10;;
22480;SDS011;11407;56.964;-2.212;2023-05-07T11:05:37;17.03;;;8.63;;
22480;SDS011;11407;56.964;-2.212;2023-05-07T11:08:03;10.23;;;6.27;;
22480;SDS011;11407;56.964;-2.212;2023-05-07T11:10:47;10.93;;;6.90;;
22480;SDS011;11407;56.964;-2.212;2023-05-07T11:13:13;10.07;;;6.37;;
22480;SDS011;11407;56.964;-2.212;2023-05-07T11:15:39;11.27;;;6.73;;
22480;SDS011;11407;56.964;-2.212;2023-05-07T11:18:07;11.43;;;6.70;;
22480;SDS011;11407;56.964;-2.212;2023-05-07T11:26:00;11.43;;;5.73;;
22480;SDS011;11407;56.964;-2.212;2023-05-07T11:28:27;11.80;;;6.23;;
22480;SDS011;11407;56.964;-2.212;2023-05-07T11:30:52;14.60;;;7.10;;
22480;SDS011;11407;56.964;-2.212;2023-05-07T11:33:18;20.33;;;7.73;;
22480;SDS011;11407;56.964;-2.212;2023-05-07T11:35:43;20.33;;;8.17;;
22480;SDS011;11407;56.964;-2.212;2023-05-07T11:38:09;19.10;;;7.87;;
22480;SDS011;11407;56.964;-2.212;2023-05-07T11:40:34;18.13;;;8.93;;
22480;SDS011;11407;56.964;-2.212;2023-05-07T11:42:59;15.27;;;8.20;;
22480;SDS011;11407;56.964;-2.212;2023-05-07T11:45:34;15.73;;;8.53;;
22480;SDS011;11407;56.964;-2.212;2023-05-07T11:48:01;17.93;;;8.80;;
22480;SDS011;11407;56.964;-2.212;2023-05-07T11:50:26;14.87;;;8.27;;
22480;SDS011;11407;56.964;-2.212;2023-05-07T11:52:52;12.70;;;7.87;;
22480;SDS011;11407;56.964;-2.212;2023-05-07T11:55:18;12.70;;;7.60;;
22480;SDS011;11407;56.964;-2.212;2023-05-07T11:57:43;12.17;;;6.90;;
22480;SDS011;11407;56.964;-2.212;2023-05-07T12:00:09;21.17;;;8.73;;
22480;SDS011;11407;56.964;-2.212;2023-05-07T12:02:35;15.50;;;8.47;;
22480;SDS011;11407;56.964;-2.212;2023-05-07T12:05:00;19.13;;;8.63;;
22480;SDS011;11407;56.964;-2.212;2023-05-07T12:07:27;18.90;;;8.03;;
22480;SDS011;11407;56.964;-2.212;2023-05-07T12:09:53;14.37;;;7.40;;
22480;SDS011;11407;56.964;-2.212;2023-05-07T12:12:18;20.67;;;8.77;;
22480;SDS011;11407;56.964;-2.212;2023-05-07T12:14:44;21.07;;;9.00;;
22480;SDS011;11407;56.964;-2.212;2023-05-07T12:17:11;24.50;;;8.77;;
22480;SDS011;11407;56.964;-2.212;2023-05-07T12:19:36;19.50;;;7.83;;
22480;SDS011;11407;56.964;-2.212;2023-05-07T12:22:02;18.70;;;7.70;;
22480;SDS011;11407;56.964;-2.212;2023-05-07T12:24:28;20.07;;;7.43;;
22480;SDS011;11407;56.964;-2.212;2023-05-07T12:26:53;16.70;;;7.10;;
22480;SDS011;11407;56.964;-2.212;2023-05-07T12:29:21;13.37;;;6.50;;
22480;SDS011;11407;56.964;-2.212;2023-05-07T12:31:46;12.70;;;6.40;;
22480;SDS011;11407;56.964;-2.212;2023-05-07T12:34:12;15.40;;;7.10;;
22480;SDS011;11407;56.964;-2.212;2023-05-07T12:36:37;13.30;;;6.70;;
22480;SDS011;11407;56.964;-2.212;2023-05-07T12:39:04;12.93;;;6.80;;
22480;SDS011;11407;56.964;-2.212;2023-05-07T12:41:29;17.30;;;8.17;;
22480;SDS011;11407;56.964;-2.212;2023-05-07T12:43:56;13.10;;;7.47;;
22480;SDS011;11407;56.964;-2.212;2023-05-07T12:46:21;13.10;;;6.83;;
22480;SDS011;11407;56.964;-2.212;2023-05-07T12:48:48;12.00;;;6.53;;
22480;SDS011;11407;56.964;-2.212;2023-05-07T12:51:13;14.40;;;7.10;;
22480;SDS011;11407;56.964;-2.212;2023-05-07T12:53:40;24.07;;;10.00;;
22480;SDS011;11407;56.964;-2.212;2023-05-07T12:56:07;21.00;;;9.07;;
22480;SDS011;11407;56.964;-2.212;2023-05-07T12:58:33;20.00;;;9.07;;
22480;SDS011;11407;56.964;-2.212;2023-05-07T13:00:59;20.53;;;9.10;;
22480;SDS011;11407;56.964;-2.212;2023-05-07T13:05:50;25.10;;;10.93;;
22480;SDS011;11407;56.964;-2.212;2023-05-07T13:10:50;25.70;;;11.20;;
22480;SDS011;11407;56.964;-2.212;2023-05-07T13:13:16;23.30;;;11.67;;
22480;SDS011;11407;56.964;-2.212;2023-05-07T13:15:41;20.93;;;10.90;;
22480;SDS011;11407;56.964;-2.212;2023-05-07T13:18:06;23.60;;;11.27;;
22480;SDS011;11407;56.964;-2.212;2023-05-07T13:20:31;22.67;;;11.30;;
22480;SDS011;11407;56.964;-2.212;2023-05-07T13:22:57;24.20;;;10.83;;
22480;SDS011;11407;56.964;-2.212;2023-05-07T13:25:22;15.73;;;8.50;;
22480;SDS011;11407;56.964;-2.212;2023-05-07T13:27:47;22.93;;;10.83;;
22480;SDS011;11407;56.964;-2.212;2023-05-07T13:30:12;26.83;;;11.17;;
22480;SDS011;11407;56.964;-2.212;2023-05-07T13:32:38;25.50;;;11.67;;
22480;SDS011;11407;56.964;-2.212;2023-05-07T13:35:03;30.33;;;11.27;;
22480;SDS011;11407;56.964;-2.212;2023-05-07T13:37:29;24.57;;;11.40;;
22480;SDS011;11407;56.964;-2.212;2023-05-07T13:39:54;27.13;;;12.47;;
22480;SDS011;11407;56.964;-2.212;2023-05-07T13:42:20;31.40;;;13.30;;
22480;SDS011;11407;56.964;-2.212;2023-05-07T13:44:45;29.43;;;13.47;;
22480;SDS011;11407;56.964;-2.212;2023-05-07T13:47:11;27.00;;;12.23;;
22480;SDS011;11407;56.964;-2.212;2023-05-07T13:49:36;23.83;;;11.87;;
22480;SDS011;11407;56.964;-2.212;2023-05-07T13:52:01;24.47;;;11.37;;
22480;SDS011;11407;56.964;-2.212;2023-05-07T13:54:26;22.87;;;11.10;;
22480;SDS011;11407;56.964;-2.212;2023-05-07T13:56:52;24.90;;;11.23;;
22480;SDS011;11407;56.964;-2.212;2023-05-07T13:59:17;25.03;;;11.87;;
22480;SDS011;11407;56.964;-2.212;2023-05-07T14:01:42;24.67;;;12.00;;
22480;SDS011;11407;56.964;-2.212;2023-05-07T14:04:07;24.83;;;11.00;;
22480;SDS011;11407;56.964;-2.212;2023-05-07T14:06:33;24.37;;;11.07;;
22480;SDS011;11407;56.964;-2.212;2023-05-07T14:08:58;22.67;;;11.60;;
22480;SDS011;11407;56.964;-2.212;2023-05-07T14:11:25;25.23;;;10.93;;
22480;SDS011;11407;56.964;-2.212;2023-05-07T14:13:50;25.03;;;11.67;;
22480;SDS011;11407;56.964;-2.212;2023-05-07T14:16:15;27.30;;;11.80;;
22480;SDS011;11407;56.964;-2.212;2023-05-07T14:18:40;26.30;;;11.17;;
22480;SDS011;11407;56.964;-2.212;2023-05-07T14:21:06;26.93;;;13.50;;
22480;SDS011;11407;56.964;-2.212;2023-05-07T14:23:32;28.53;;;13.07;;
22480;SDS011;11407;56.964;-2.212;2023-05-07T14:25:57;25.47;;;13.03;;